AUA579 LOWW-LICC
Flight info
| Callsign | AUA579 |
|---|---|
| Flight time | 1h 44m |
| Altitude | 35000 |
| Route | STEIN3C/29 STEIN DCT NOHAT DCT NEKIN DCT NIVES/N0454F340 DCT RASTU DCT PALEZ/N0452F350 DCT MOLUX DCT NERAR DCT VAKOR DCT PELEN DCT UXUTA |
| Aircraft | A320/M-SDE3FGHIRWY/LB1 |
Departure
| Time | 2026-04-25 17:36 |
|---|---|
| Airport | Vienna International Airport (LOWW) |
Arrival
| Time | 2026-04-25 19:21 |
|---|---|
| Airport | Catania-Fontanarossa Airport (LICC) |
| Time | Latitude | Longitude | Altitude | Speed | Heading |
|---|---|---|---|---|---|
| 2026-04-25 17:19 | 48.11692 | 16.56843 | 607 ft | 0 kts | 27° |
| 2026-04-25 17:28 | 48.11681 | 16.56835 | 607 ft | 2 kts | 27° |
| 2026-04-25 17:28 | 48.11668 | 16.56825 | 608 ft | 2 kts | 27° |
| 2026-04-25 17:28 | 48.11654 | 16.56815 | 607 ft | 1 kts | 27° |
| 2026-04-25 17:28 | 48.11646 | 16.56808 | 608 ft | 2 kts | 19° |
| 2026-04-25 17:29 | 48.11631 | 16.56807 | 607 ft | 2 kts | 349° |
| 2026-04-25 17:29 | 48.11617 | 16.56815 | 608 ft | 2 kts | 324° |
| 2026-04-25 17:29 | 48.11607 | 16.56830 | 608 ft | 0 kts | 300° |
| 2026-04-25 17:29 | 48.11604 | 16.56837 | 607 ft | 0 kts | 294° |
| 2026-04-25 17:30 | 48.11605 | 16.56837 | 607 ft | 0 kts | 296° |
| 2026-04-25 17:30 | 48.11606 | 16.56832 | 607 ft | 1 kts | 296° |
| 2026-04-25 17:30 | 48.11615 | 16.56805 | 608 ft | 4 kts | 296° |
| 2026-04-25 17:30 | 48.11632 | 16.56755 | 607 ft | 6 kts | 297° |
| 2026-04-25 17:31 | 48.11656 | 16.56682 | 608 ft | 9 kts | 295° |
| 2026-04-25 17:31 | 48.11686 | 16.56586 | 608 ft | 11 kts | 296° |
| 2026-04-25 17:31 | 48.11723 | 16.56475 | 607 ft | 12 kts | 296° |
| 2026-04-25 17:31 | 48.11758 | 16.56355 | 607 ft | 12 kts | 276° |
| 2026-04-25 17:32 | 48.11700 | 16.56271 | 607 ft | 12 kts | 206° |
| 2026-04-25 17:32 | 48.11624 | 16.56201 | 607 ft | 13 kts | 215° |
| 2026-04-25 17:32 | 48.11549 | 16.56229 | 607 ft | 13 kts | 118° |
| 2026-04-25 17:32 | 48.11507 | 16.56357 | 607 ft | 13 kts | 116° |
| 2026-04-25 17:33 | 48.11465 | 16.56490 | 608 ft | 14 kts | 115° |
| 2026-04-25 17:33 | 48.11419 | 16.56629 | 608 ft | 15 kts | 116° |
| 2026-04-25 17:33 | 48.11372 | 16.56771 | 608 ft | 15 kts | 116° |
| 2026-04-25 17:33 | 48.11324 | 16.56919 | 608 ft | 16 kts | 116° |
| 2026-04-25 17:34 | 48.11275 | 16.57070 | 608 ft | 16 kts | 116° |
| 2026-04-25 17:34 | 48.11225 | 16.57224 | 608 ft | 16 kts | 116° |
| 2026-04-25 17:34 | 48.11173 | 16.57382 | 608 ft | 17 kts | 116° |
| 2026-04-25 17:34 | 48.11121 | 16.57543 | 608 ft | 17 kts | 116° |
| 2026-04-25 17:35 | 48.11057 | 16.57647 | 608 ft | 13 kts | 178° |
| 2026-04-25 17:35 | 48.10968 | 16.57591 | 608 ft | 14 kts | 206° |
| 2026-04-25 17:35 | 48.10923 | 16.57519 | 608 ft | 9 kts | 268° |
| 2026-04-25 17:35 | 48.10950 | 16.57424 | 608 ft | 12 kts | 296° |
| 2026-04-25 17:36 | 48.11074 | 16.57042 | 608 ft | 74 kts | 295° |
| 2026-04-25 17:36 | 48.11390 | 16.56074 | 608 ft | 132 kts | 296° |
| 2026-04-25 17:36 | 48.11851 | 16.54667 | 819 ft | 159 kts | 295° |
| 2026-04-25 17:36 | 48.12254 | 16.53141 | 1365 ft | 161 kts | 273° |
| 2026-04-25 17:37 | 48.11776 | 16.51634 | 1990 ft | 172 kts | 227° |
| 2026-04-25 17:37 | 48.10782 | 16.50646 | 2540 ft | 178 kts | 220° |
| 2026-04-25 17:37 | 48.09737 | 16.49557 | 2892 ft | 189 kts | 223° |
| 2026-04-25 17:37 | 48.08641 | 16.48331 | 3180 ft | 205 kts | 223° |
| 2026-04-25 17:38 | 48.07249 | 16.47407 | 3414 ft | 237 kts | 193° |
| 2026-04-25 17:38 | 48.06112 | 16.47366 | 3651 ft | 254 kts | 180° |
| 2026-04-25 17:38 | 48.03648 | 16.47840 | 4135 ft | 279 kts | 175° |
| 2026-04-25 17:38 | 48.01712 | 16.48267 | 4748 ft | 286 kts | 176° |
| 2026-04-25 17:39 | 47.99743 | 16.48664 | 5528 ft | 287 kts | 176° |
| 2026-04-25 17:39 | 47.97784 | 16.49043 | 6280 ft | 289 kts | 175° |
| 2026-04-25 17:39 | 47.95761 | 16.49450 | 7029 ft | 292 kts | 175° |
| 2026-04-25 17:39 | 47.93761 | 16.49858 | 7772 ft | 294 kts | 176° |
| 2026-04-25 17:40 | 47.91731 | 16.50270 | 8518 ft | 297 kts | 176° |
| 2026-04-25 17:40 | 47.89689 | 16.50682 | 9282 ft | 299 kts | 176° |
| 2026-04-25 17:40 | 47.87632 | 16.51096 | 10034 ft | 301 kts | 176° |
| 2026-04-25 17:40 | 47.85537 | 16.51513 | 10618 ft | 310 kts | 176° |
| 2026-04-25 17:41 | 47.83347 | 16.51943 | 10937 ft | 327 kts | 176° |
| 2026-04-25 17:41 | 47.81022 | 16.52402 | 11237 ft | 344 kts | 176° |
| 2026-04-25 17:41 | 47.78601 | 16.52882 | 11551 ft | 359 kts | 175° |
| 2026-04-25 17:41 | 47.76115 | 16.53380 | 12081 ft | 366 kts | 176° |
| 2026-04-25 17:42 | 47.73574 | 16.53890 | 12749 ft | 369 kts | 175° |
| 2026-04-25 17:42 | 47.71052 | 16.54393 | 13386 ft | 372 kts | 175° |
| 2026-04-25 17:42 | 47.68457 | 16.54909 | 13993 ft | 375 kts | 176° |
| 2026-04-25 17:42 | 47.65882 | 16.55421 | 14536 ft | 379 kts | 176° |
| 2026-04-25 17:43 | 47.63266 | 16.55939 | 15103 ft | 382 kts | 176° |
| 2026-04-25 17:43 | 47.60628 | 16.56461 | 15653 ft | 385 kts | 176° |
| 2026-04-25 17:43 | 47.57953 | 16.56989 | 16209 ft | 388 kts | 176° |
| 2026-04-25 17:43 | 47.55271 | 16.57519 | 16736 ft | 390 kts | 176° |
| 2026-04-25 17:44 | 47.52594 | 16.58047 | 17240 ft | 393 kts | 176° |
| 2026-04-25 17:44 | 47.49871 | 16.58582 | 17759 ft | 395 kts | 176° |
| 2026-04-25 17:44 | 47.47154 | 16.59118 | 18262 ft | 398 kts | 176° |
| 2026-04-25 17:44 | 47.44426 | 16.59649 | 18754 ft | 400 kts | 177° |
| 2026-04-25 17:45 | 47.41639 | 16.60019 | 19235 ft | 401 kts | 181° |
| 2026-04-25 17:45 | 47.39784 | 16.60127 | 19546 ft | 402 kts | 182° |
| 2026-04-25 17:45 | 47.36065 | 16.60288 | 20150 ft | 405 kts | 182° |
| 2026-04-25 17:45 | 47.33257 | 16.60408 | 20608 ft | 407 kts | 182° |
| 2026-04-25 17:46 | 47.30398 | 16.60531 | 21059 ft | 409 kts | 182° |
| 2026-04-25 17:46 | 47.27585 | 16.60652 | 21486 ft | 411 kts | 182° |
| 2026-04-25 17:46 | 47.24691 | 16.60775 | 21924 ft | 413 kts | 182° |
| 2026-04-25 17:46 | 47.21821 | 16.60900 | 22339 ft | 415 kts | 182° |
| 2026-04-25 17:47 | 47.18936 | 16.61025 | 22748 ft | 417 kts | 182° |
| 2026-04-25 17:47 | 47.16058 | 16.61150 | 23146 ft | 419 kts | 182° |
| 2026-04-25 17:47 | 47.13139 | 16.61275 | 23551 ft | 421 kts | 182° |
| 2026-04-25 17:47 | 47.10170 | 16.61406 | 23926 ft | 423 kts | 182° |
| 2026-04-25 17:48 | 47.04292 | 16.61660 | 24630 ft | 428 kts | 182° |
| 2026-04-25 17:48 | 47.01281 | 16.61789 | 24975 ft | 430 kts | 182° |
| 2026-04-25 17:48 | 46.98307 | 16.61917 | 25307 ft | 432 kts | 182° |
| 2026-04-25 17:49 | 46.95317 | 16.62045 | 25628 ft | 434 kts | 182° |
| 2026-04-25 17:49 | 46.92287 | 16.62175 | 25942 ft | 436 kts | 183° |
| 2026-04-25 17:49 | 46.89267 | 16.62304 | 26255 ft | 438 kts | 183° |
| 2026-04-25 17:49 | 46.86187 | 16.62435 | 26564 ft | 440 kts | 183° |
| 2026-04-25 17:50 | 46.83128 | 16.62573 | 26865 ft | 441 kts | 182° |
| 2026-04-25 17:50 | 46.80041 | 16.62891 | 27141 ft | 445 kts | 179° |
| 2026-04-25 17:50 | 46.76962 | 16.63444 | 27414 ft | 448 kts | 177° |
| 2026-04-25 17:50 | 46.73880 | 16.64038 | 27679 ft | 450 kts | 177° |
| 2026-04-25 17:51 | 46.70799 | 16.64629 | 27925 ft | 452 kts | 177° |
| 2026-04-25 17:51 | 46.67660 | 16.65227 | 28179 ft | 454 kts | 177° |
| 2026-04-25 17:51 | 46.64555 | 16.65819 | 28422 ft | 455 kts | 177° |
| 2026-04-25 17:51 | 46.61379 | 16.66425 | 28667 ft | 457 kts | 177° |
| 2026-04-25 17:52 | 46.58244 | 16.67021 | 28889 ft | 459 kts | 177° |
| 2026-04-25 17:52 | 46.56149 | 16.67419 | 29036 ft | 460 kts | 177° |
| 2026-04-25 17:52 | 46.51900 | 16.68226 | 29341 ft | 461 kts | 177° |
| 2026-04-25 17:52 | 46.48737 | 16.68826 | 29571 ft | 462 kts | 177° |
| 2026-04-25 17:53 | 46.45558 | 16.69263 | 29853 ft | 458 kts | 183° |
| 2026-04-25 17:53 | 46.42403 | 16.69133 | 30137 ft | 452 kts | 190° |
| 2026-04-25 17:53 | 46.39290 | 16.68424 | 30407 ft | 447 kts | 198° |
| 2026-04-25 17:53 | 46.36356 | 16.67201 | 30670 ft | 442 kts | 205° |
| 2026-04-25 17:54 | 46.33526 | 16.65482 | 30921 ft | 438 kts | 210° |
| 2026-04-25 17:54 | 46.30769 | 16.63601 | 31148 ft | 438 kts | 210° |
| 2026-04-25 17:54 | 46.28012 | 16.61693 | 31391 ft | 438 kts | 210° |
| 2026-04-25 17:54 | 46.25302 | 16.59821 | 31636 ft | 437 kts | 210° |
| 2026-04-25 17:55 | 46.22544 | 16.57922 | 31888 ft | 437 kts | 210° |
| 2026-04-25 17:55 | 46.19807 | 16.56043 | 32136 ft | 436 kts | 210° |
| 2026-04-25 17:55 | 46.17068 | 16.54170 | 32372 ft | 436 kts | 210° |
| 2026-04-25 17:55 | 46.14350 | 16.52314 | 32598 ft | 435 kts | 210° |
| 2026-04-25 17:56 | 46.11604 | 16.50442 | 32831 ft | 435 kts | 210° |
| 2026-04-25 17:56 | 46.08892 | 16.48597 | 32932 ft | 435 kts | 210° |
| 2026-04-25 17:56 | 46.06176 | 16.46750 | 32936 ft | 435 kts | 210° |
| 2026-04-25 17:57 | 46.00713 | 16.43041 | 32938 ft | 434 kts | 210° |
| 2026-04-25 17:57 | 45.95239 | 16.39337 | 32944 ft | 434 kts | 210° |
| 2026-04-25 17:58 | 45.89790 | 16.35659 | 32949 ft | 435 kts | 210° |
| 2026-04-25 17:58 | 45.84365 | 16.32002 | 32951 ft | 434 kts | 210° |
| 2026-04-25 17:59 | 45.78899 | 16.28326 | 32952 ft | 434 kts | 209° |
| 2026-04-25 17:59 | 45.73416 | 16.24645 | 32951 ft | 434 kts | 209° |
| 2026-04-25 18:00 | 45.67950 | 16.20985 | 32954 ft | 434 kts | 209° |
| 2026-04-25 18:00 | 45.62467 | 16.17322 | 32961 ft | 435 kts | 209° |
| 2026-04-25 18:01 | 45.56992 | 16.13670 | 32969 ft | 435 kts | 209° |
| 2026-04-25 18:01 | 45.51539 | 16.10044 | 32973 ft | 435 kts | 209° |
| 2026-04-25 18:02 | 45.46063 | 16.06407 | 32976 ft | 436 kts | 209° |
| 2026-04-25 18:02 | 45.40567 | 16.02769 | 32981 ft | 435 kts | 209° |
| 2026-04-25 18:03 | 45.35079 | 15.99139 | 32988 ft | 434 kts | 209° |
| 2026-04-25 18:03 | 45.29616 | 15.95533 | 32988 ft | 434 kts | 209° |
| 2026-04-25 18:04 | 45.24154 | 15.91937 | 32992 ft | 434 kts | 209° |
| 2026-04-25 18:04 | 45.18614 | 15.88579 | 33000 ft | 436 kts | 206° |
| 2026-04-25 18:05 | 45.13008 | 15.85300 | 33013 ft | 435 kts | 206° |
| 2026-04-25 18:05 | 45.07391 | 15.82019 | 33009 ft | 435 kts | 206° |
| 2026-04-25 18:06 | 45.01829 | 15.78777 | 33014 ft | 436 kts | 206° |
| 2026-04-25 18:06 | 44.96226 | 15.75520 | 33010 ft | 436 kts | 206° |
| 2026-04-25 18:07 | 44.90619 | 15.72281 | 33029 ft | 436 kts | 206° |
| 2026-04-25 18:07 | 44.85011 | 15.69060 | 33018 ft | 437 kts | 206° |
| 2026-04-25 18:08 | 44.79361 | 15.65817 | 33024 ft | 438 kts | 206° |
| 2026-04-25 18:08 | 44.73736 | 15.62595 | 33025 ft | 438 kts | 206° |
| 2026-04-25 18:09 | 44.68122 | 15.59383 | 33028 ft | 438 kts | 206° |
| 2026-04-25 18:09 | 44.62452 | 15.56158 | 33030 ft | 439 kts | 205° |
| 2026-04-25 18:10 | 44.56646 | 15.53494 | 33029 ft | 443 kts | 199° |
| 2026-04-25 18:10 | 44.50595 | 15.51717 | 33023 ft | 445 kts | 193° |
| 2026-04-25 18:11 | 44.44518 | 15.50305 | 33020 ft | 445 kts | 193° |
| 2026-04-25 18:11 | 44.38418 | 15.48881 | 33014 ft | 445 kts | 193° |
| 2026-04-25 18:12 | 44.32329 | 15.47462 | 33009 ft | 445 kts | 193° |
| 2026-04-25 18:12 | 44.26254 | 15.46050 | 33004 ft | 446 kts | 193° |
| 2026-04-25 18:13 | 44.20139 | 15.44631 | 33003 ft | 447 kts | 193° |
| 2026-04-25 18:13 | 44.14023 | 15.43217 | 33004 ft | 446 kts | 193° |
| 2026-04-25 18:14 | 44.04828 | 15.41097 | 33005 ft | 446 kts | 193° |
| 2026-04-25 18:14 | 43.98751 | 15.39697 | 33004 ft | 446 kts | 193° |
| 2026-04-25 18:15 | 43.92619 | 15.38288 | 33004 ft | 446 kts | 193° |
| 2026-04-25 18:15 | 43.86512 | 15.36889 | 33003 ft | 446 kts | 193° |
| 2026-04-25 18:16 | 43.80406 | 15.35493 | 33002 ft | 446 kts | 193° |
| 2026-04-25 18:17 | 43.71208 | 15.33394 | 33001 ft | 446 kts | 192° |
| 2026-04-25 18:17 | 43.65095 | 15.32004 | 33001 ft | 446 kts | 192° |
| 2026-04-25 18:18 | 43.58969 | 15.30612 | 33001 ft | 446 kts | 192° |
| 2026-04-25 18:18 | 43.52873 | 15.29231 | 33001 ft | 446 kts | 191° |
| 2026-04-25 18:19 | 43.46742 | 15.27845 | 33001 ft | 446 kts | 191° |
| 2026-04-25 18:19 | 43.40631 | 15.26466 | 33001 ft | 446 kts | 191° |
| 2026-04-25 18:20 | 43.34523 | 15.25090 | 33001 ft | 446 kts | 191° |
| 2026-04-25 18:20 | 43.28395 | 15.23713 | 33000 ft | 446 kts | 191° |
| 2026-04-25 18:21 | 43.22298 | 15.22346 | 33001 ft | 446 kts | 191° |
| 2026-04-25 18:21 | 43.16189 | 15.20979 | 33000 ft | 446 kts | 191° |
| 2026-04-25 18:22 | 43.10077 | 15.19613 | 33000 ft | 446 kts | 191° |
| 2026-04-25 18:22 | 43.03956 | 15.18248 | 33000 ft | 446 kts | 191° |
| 2026-04-25 18:23 | 42.97872 | 15.16894 | 33001 ft | 446 kts | 191° |
| 2026-04-25 18:23 | 42.91753 | 15.15535 | 33002 ft | 445 kts | 191° |
| 2026-04-25 18:24 | 42.85633 | 15.14180 | 33001 ft | 445 kts | 191° |
| 2026-04-25 18:24 | 42.79549 | 15.12835 | 33001 ft | 445 kts | 191° |
| 2026-04-25 18:25 | 42.73418 | 15.11481 | 33001 ft | 445 kts | 191° |
| 2026-04-25 18:25 | 42.67313 | 15.10136 | 33002 ft | 445 kts | 191° |
| 2026-04-25 18:26 | 42.61208 | 15.08793 | 33003 ft | 445 kts | 190° |
| 2026-04-25 18:26 | 42.55115 | 15.07458 | 33002 ft | 445 kts | 190° |
| 2026-04-25 18:27 | 42.49048 | 15.06128 | 33003 ft | 444 kts | 190° |
| 2026-04-25 18:27 | 42.42960 | 15.04798 | 33001 ft | 444 kts | 190° |
| 2026-04-25 18:28 | 42.36849 | 15.03466 | 33001 ft | 444 kts | 190° |
| 2026-04-25 18:28 | 42.30752 | 15.02139 | 33003 ft | 445 kts | 190° |
| 2026-04-25 18:29 | 42.21569 | 15.00147 | 33002 ft | 445 kts | 190° |
| 2026-04-25 18:30 | 42.09378 | 14.97507 | 33006 ft | 445 kts | 189° |
| 2026-04-25 18:30 | 42.03234 | 14.96180 | 33016 ft | 445 kts | 189° |
| 2026-04-25 18:31 | 41.97123 | 14.94865 | 33021 ft | 446 kts | 189° |
| 2026-04-25 18:31 | 41.91028 | 14.93556 | 33028 ft | 446 kts | 189° |
| 2026-04-25 18:32 | 41.84903 | 14.92243 | 33031 ft | 446 kts | 189° |
| 2026-04-25 18:32 | 41.78786 | 14.90933 | 33040 ft | 445 kts | 189° |
| 2026-04-25 18:33 | 41.72654 | 14.89622 | 33045 ft | 445 kts | 189° |
| 2026-04-25 18:33 | 41.66535 | 14.88316 | 33049 ft | 445 kts | 189° |
| 2026-04-25 18:34 | 41.60417 | 14.87012 | 33059 ft | 445 kts | 189° |
| 2026-04-25 18:34 | 41.54333 | 14.85719 | 33068 ft | 444 kts | 189° |
| 2026-04-25 18:35 | 41.48218 | 14.84422 | 33074 ft | 444 kts | 189° |
| 2026-04-25 18:35 | 41.42141 | 14.83133 | 33078 ft | 445 kts | 189° |
| 2026-04-25 18:36 | 41.36022 | 14.81839 | 33075 ft | 445 kts | 189° |
| 2026-04-25 18:36 | 41.29899 | 14.80493 | 33074 ft | 447 kts | 191° |
| 2026-04-25 18:37 | 41.23779 | 14.78801 | 33069 ft | 454 kts | 191° |
| 2026-04-25 18:37 | 41.17576 | 14.77088 | 33070 ft | 456 kts | 191° |
| 2026-04-25 18:38 | 41.11401 | 14.75383 | 33069 ft | 456 kts | 191° |
| 2026-04-25 18:38 | 41.05193 | 14.73669 | 33071 ft | 456 kts | 191° |
| 2026-04-25 18:39 | 40.98985 | 14.71960 | 33072 ft | 456 kts | 191° |
| 2026-04-25 18:39 | 40.92772 | 14.70251 | 33072 ft | 456 kts | 191° |
| 2026-04-25 18:40 | 40.86544 | 14.68541 | 33074 ft | 456 kts | 191° |
| 2026-04-25 18:40 | 40.80324 | 14.66837 | 33075 ft | 456 kts | 191° |
| 2026-04-25 18:41 | 40.74133 | 14.65144 | 33077 ft | 458 kts | 191° |
| 2026-04-25 18:41 | 40.67847 | 14.63429 | 33071 ft | 459 kts | 191° |
| 2026-04-25 18:42 | 40.62674 | 14.62020 | 33074 ft | 457 kts | 191° |
| 2026-04-25 18:42 | 40.55396 | 14.60040 | 33073 ft | 456 kts | 191° |
| 2026-04-25 18:43 | 40.49209 | 14.58361 | 33074 ft | 456 kts | 191° |
| 2026-04-25 18:43 | 40.43013 | 14.56683 | 33074 ft | 456 kts | 191° |
| 2026-04-25 18:44 | 40.36813 | 14.55007 | 33076 ft | 457 kts | 191° |
| 2026-04-25 18:44 | 40.30561 | 14.53319 | 33077 ft | 457 kts | 191° |
| 2026-04-25 18:45 | 40.24367 | 14.51651 | 33079 ft | 457 kts | 191° |
| 2026-04-25 18:45 | 40.18153 | 14.49981 | 33079 ft | 457 kts | 191° |
| 2026-04-25 18:46 | 40.11927 | 14.48311 | 33081 ft | 457 kts | 191° |
| 2026-04-25 18:46 | 40.05702 | 14.46643 | 33082 ft | 457 kts | 191° |
| 2026-04-25 18:47 | 39.99496 | 14.44984 | 33085 ft | 457 kts | 191° |
| 2026-04-25 18:47 | 39.93240 | 14.43313 | 33086 ft | 457 kts | 191° |
| 2026-04-25 18:48 | 39.87040 | 14.41662 | 33089 ft | 457 kts | 191° |
| 2026-04-25 18:48 | 39.80809 | 14.40006 | 33089 ft | 457 kts | 191° |
| 2026-04-25 18:49 | 39.74580 | 14.38354 | 33091 ft | 457 kts | 191° |
| 2026-04-25 18:49 | 39.68335 | 14.36700 | 33092 ft | 457 kts | 191° |
| 2026-04-25 18:50 | 39.62118 | 14.35055 | 33090 ft | 457 kts | 191° |
| 2026-04-25 18:50 | 39.55902 | 14.33413 | 33095 ft | 457 kts | 191° |
| 2026-04-25 18:51 | 39.50729 | 14.32049 | 33093 ft | 457 kts | 191° |
| 2026-04-25 18:51 | 39.43435 | 14.30129 | 33098 ft | 457 kts | 190° |
| 2026-04-25 18:52 | 39.37220 | 14.28496 | 33097 ft | 458 kts | 191° |
| 2026-04-25 18:52 | 39.30926 | 14.26847 | 33101 ft | 466 kts | 191° |
| 2026-04-25 18:53 | 39.24549 | 14.25266 | 33101 ft | 468 kts | 189° |
| 2026-04-25 18:53 | 39.18151 | 14.23726 | 33099 ft | 469 kts | 189° |
| 2026-04-25 18:54 | 39.08559 | 14.21405 | 33106 ft | 469 kts | 189° |
| 2026-04-25 18:55 | 39.02120 | 14.19845 | 33109 ft | 469 kts | 190° |
| 2026-04-25 18:55 | 38.95747 | 14.18304 | 33103 ft | 469 kts | 190° |
| 2026-04-25 18:56 | 38.89281 | 14.17209 | 33103 ft | 468 kts | 181° |
| 2026-04-25 18:56 | 38.82831 | 14.17692 | 33104 ft | 467 kts | 170° |
| 2026-04-25 18:57 | 38.76559 | 14.19776 | 33104 ft | 466 kts | 159° |
| 2026-04-25 18:57 | 38.70645 | 14.23126 | 33105 ft | 466 kts | 154° |
| 2026-04-25 18:58 | 38.64775 | 14.26679 | 32977 ft | 468 kts | 154° |
| 2026-04-25 18:58 | 38.58972 | 14.30172 | 32109 ft | 458 kts | 154° |
| 2026-04-25 18:58 | 38.56088 | 14.31901 | 31188 ft | 460 kts | 154° |
| 2026-04-25 18:59 | 38.50294 | 14.35367 | 28577 ft | 463 kts | 154° |
| 2026-04-25 18:59 | 38.44648 | 14.38736 | 27286 ft | 441 kts | 154° |
| 2026-04-25 19:00 | 38.39129 | 14.42024 | 26370 ft | 436 kts | 154° |
| 2026-04-25 19:00 | 38.36372 | 14.43664 | 25845 ft | 433 kts | 154° |
| 2026-04-25 19:01 | 38.30943 | 14.46891 | 24772 ft | 425 kts | 154° |
| 2026-04-25 19:01 | 38.28281 | 14.48472 | 24252 ft | 422 kts | 154° |
| 2026-04-25 19:01 | 38.25641 | 14.50038 | 23735 ft | 418 kts | 154° |
| 2026-04-25 19:01 | 38.22999 | 14.51605 | 23219 ft | 414 kts | 154° |
| 2026-04-25 19:02 | 38.17824 | 14.54671 | 22229 ft | 406 kts | 154° |
| 2026-04-25 19:02 | 38.15279 | 14.56177 | 21733 ft | 403 kts | 154° |
| 2026-04-25 19:02 | 38.12759 | 14.57666 | 21226 ft | 400 kts | 154° |
| 2026-04-25 19:03 | 38.08601 | 14.60122 | 20388 ft | 395 kts | 153° |
| 2026-04-25 19:03 | 38.05280 | 14.62082 | 19702 ft | 393 kts | 153° |
| 2026-04-25 19:03 | 38.02794 | 14.63461 | 19152 ft | 392 kts | 160° |
| 2026-04-25 19:04 | 37.97461 | 14.62900 | 17867 ft | 397 kts | 208° |
| 2026-04-25 19:04 | 37.95162 | 14.60932 | 17221 ft | 398 kts | 215° |
| 2026-04-25 19:05 | 37.90610 | 14.56942 | 15882 ft | 400 kts | 213° |
| 2026-04-25 19:05 | 37.85963 | 14.53161 | 14533 ft | 401 kts | 211° |
| 2026-04-25 19:05 | 37.83609 | 14.51294 | 13855 ft | 401 kts | 211° |
| 2026-04-25 19:06 | 37.81224 | 14.49414 | 13199 ft | 399 kts | 211° |
| 2026-04-25 19:06 | 37.76562 | 14.45897 | 12155 ft | 388 kts | 202° |
| 2026-04-25 19:06 | 37.73996 | 14.44948 | 11588 ft | 382 kts | 187° |
| 2026-04-25 19:07 | 37.68797 | 14.44636 | 10706 ft | 360 kts | 180° |
| 2026-04-25 19:07 | 37.66360 | 14.44573 | 10556 ft | 340 kts | 180° |
| 2026-04-25 19:08 | 37.61803 | 14.44422 | 10252 ft | 313 kts | 180° |
| 2026-04-25 19:08 | 37.59689 | 14.44342 | 10124 ft | 302 kts | 180° |
| 2026-04-25 19:09 | 37.53683 | 14.44099 | 9699 ft | 271 kts | 180° |
| 2026-04-25 19:09 | 37.52439 | 14.44048 | 9629 ft | 264 kts | 180° |
| 2026-04-25 19:09 | 37.48530 | 14.45165 | 9093 ft | 244 kts | 129° |
| 2026-04-25 19:10 | 37.47741 | 14.46988 | 8831 ft | 235 kts | 103° |
| 2026-04-25 19:10 | 37.47324 | 14.48941 | 8587 ft | 231 kts | 102° |
| 2026-04-25 19:10 | 37.46909 | 14.50871 | 8341 ft | 227 kts | 103° |
| 2026-04-25 19:10 | 37.46478 | 14.52752 | 8151 ft | 220 kts | 104° |
| 2026-04-25 19:11 | 37.46052 | 14.54539 | 8003 ft | 208 kts | 104° |
| 2026-04-25 19:11 | 37.45635 | 14.56249 | 7710 ft | 204 kts | 105° |
| 2026-04-25 19:11 | 37.45217 | 14.57940 | 7419 ft | 200 kts | 105° |
| 2026-04-25 19:11 | 37.44810 | 14.59578 | 7180 ft | 193 kts | 105° |
| 2026-04-25 19:12 | 37.44414 | 14.61168 | 6952 ft | 186 kts | 105° |
| 2026-04-25 19:12 | 37.44074 | 14.62684 | 6764 ft | 175 kts | 102° |
| 2026-04-25 19:12 | 37.43780 | 14.64138 | 6444 ft | 170 kts | 101° |
| 2026-04-25 19:12 | 37.43524 | 14.65583 | 6114 ft | 165 kts | 97° |
| 2026-04-25 19:13 | 37.43423 | 14.66965 | 5879 ft | 154 kts | 89° |
| 2026-04-25 19:13 | 37.43447 | 14.68270 | 5660 ft | 145 kts | 83° |
| 2026-04-25 19:13 | 37.43559 | 14.69527 | 5473 ft | 146 kts | 81° |
| 2026-04-25 19:13 | 37.43695 | 14.70844 | 5311 ft | 156 kts | 81° |
| 2026-04-25 19:14 | 37.43829 | 14.72198 | 5120 ft | 157 kts | 81° |
| 2026-04-25 19:14 | 37.43913 | 14.73104 | 4988 ft | 157 kts | 82° |
| 2026-04-25 19:14 | 37.44075 | 14.74936 | 4718 ft | 157 kts | 82° |
| 2026-04-25 19:14 | 37.44188 | 14.76287 | 4516 ft | 157 kts | 82° |
| 2026-04-25 19:15 | 37.44300 | 14.77652 | 4309 ft | 157 kts | 82° |
| 2026-04-25 19:15 | 37.44409 | 14.79019 | 4099 ft | 156 kts | 82° |
| 2026-04-25 19:15 | 37.44517 | 14.80386 | 3887 ft | 156 kts | 83° |
| 2026-04-25 19:15 | 37.44626 | 14.81748 | 3675 ft | 156 kts | 83° |
| 2026-04-25 19:16 | 37.44732 | 14.83089 | 3467 ft | 155 kts | 82° |
| 2026-04-25 19:16 | 37.44839 | 14.84437 | 3257 ft | 154 kts | 83° |
| 2026-04-25 19:16 | 37.44947 | 14.85775 | 3051 ft | 154 kts | 83° |
| 2026-04-25 19:16 | 37.45056 | 14.87115 | 2847 ft | 153 kts | 82° |
| 2026-04-25 19:17 | 37.45161 | 14.88416 | 2647 ft | 146 kts | 82° |
| 2026-04-25 19:17 | 37.45262 | 14.89656 | 2439 ft | 140 kts | 82° |
| 2026-04-25 19:17 | 37.45362 | 14.90873 | 2266 ft | 140 kts | 82° |
| 2026-04-25 19:17 | 37.45463 | 14.92088 | 2094 ft | 140 kts | 83° |
| 2026-04-25 19:18 | 37.45564 | 14.93302 | 1918 ft | 140 kts | 83° |
| 2026-04-25 19:18 | 37.45663 | 14.94512 | 1740 ft | 139 kts | 82° |
| 2026-04-25 19:18 | 37.45765 | 14.95733 | 1557 ft | 139 kts | 82° |
| 2026-04-25 19:18 | 37.45868 | 14.96931 | 1373 ft | 138 kts | 81° |
| 2026-04-25 19:19 | 37.45954 | 14.98130 | 1218 ft | 138 kts | 84° |
| 2026-04-25 19:19 | 37.46050 | 14.99326 | 985 ft | 136 kts | 83° |
| 2026-04-25 19:19 | 37.46153 | 15.00500 | 826 ft | 135 kts | 83° |
| 2026-04-25 19:19 | 37.46217 | 15.01285 | 734 ft | 135 kts | 84° |
| 2026-04-25 19:20 | 37.46352 | 15.02834 | 500 ft | 134 kts | 84° |
| 2026-04-25 19:20 | 37.46455 | 15.03987 | 319 ft | 133 kts | 83° |
| 2026-04-25 19:20 | 37.46556 | 15.05145 | 119 ft | 132 kts | 85° |
| 2026-04-25 19:20 | 37.46645 | 15.06240 | 32 ft | 110 kts | 84° |
| 2026-04-25 19:21 | 37.46701 | 15.06897 | 28 ft | 12 kts | 80° |
| 2026-04-25 19:21 | 37.46869 | 15.06874 | 28 ft | 14 kts | 353° |